• Join FlightAware (Why Join?)
  • Login
  • US Flag 
01:24PM EDT


 

Airport Tracker/Info


-or-


 

Live Flight TrackerFlight Track Log ✈ FLG4208 ✈ 18-Apr-2013 ✈ KAZO - KDTW

Flight Track Log - Related Links

Times and Time Zones

All times are in EDT time to prevent confusion due to time zone crossing. See the FLG4208 flight status page for this flight to view local times or setup timezone preferences in your user account.

Time Position Orientation Groundspeed Altitude Reporting Facility
EDT Latitude Longitude Course Direction KTS MPH feet Rate Location/Type
12:02PM 42.1787 -85.2968 107° East  Level FlightAware Approximate
12:02PM 42.1650 -85.3575 100° East 268 308 6,600  Level Cleveland Center
12:03PM 42.1588 -85.2114 107° East  Level FlightAware Approximate
12:03PM 42.1450 -85.2383 103° East 297 342 9,600  Level Cleveland Center
12:04PM 42.1389 -85.1262 107° East  Level FlightAware Approximate
12:04PM 42.1231 -85.1050 102° East 313 360 11,000  Level Cleveland Center
12:05PM 42.1189 -85.0409 108° East  Level FlightAware Approximate
12:05PM 42.0992 -84.9689 103° East 346 398 11,000  Level Cleveland Center
12:06PM 42.1040 -84.9776 108° East  Level FlightAware Approximate
12:06PM 42.0769 -84.8414 103° East 356 410 12,000  Level Cleveland Center
12:07PM 42.0814 -84.8820 108° East  Level FlightAware Approximate
12:07PM 42.0456 -84.7275 110° East 356 410 12,000  Level Cleveland Center
12:08PM 41.9947 -84.6347 126° Southeast 313 360 12,000  Level Cleveland Center
12:09PM 41.9411 -84.5558 132° Southeast 313 360 12,000  Level Cleveland Center
12:10PM 41.8767 -84.4933 144° Southeast 290 334 12,000  Level Cleveland Center
12:11PM 41.8553 -84.3806 104° East 285 328 12,000  Level Cleveland Center
12:12PM 41.8481 -84.2825 96° East 296 341 12,000  Level Cleveland Center
12:12PM 41.8400 -84.2150 99° East 334 384 12,000  Level Cleveland Center
12:13PM 41.8325 -84.1169 96° East 334 384 12,000  Level Cleveland Center
12:14PM 41.8269 -84.0219 94° East 327 376 12,000  Level Cleveland Center
12:14PM 41.8492 -83.9758 57° Northeast 363 418 12,000  Level Cleveland Center
12:15PM 41.8886 -83.9164 48° Northeast 323 372 12,000  Level Cleveland Center
12:15PM 41.9208 -83.8847 36° Northeast 362 417 12,000  Level Cleveland Center
12:16PM 41.9619 -83.8253 47° Northeast 329 379 12,000  Level Cleveland Center
12:16PM 41.9964 -83.7908 37° Northeast 364 419 12,000  Level Cleveland Center
12:17PM 42.0375 -83.7342 46° Northeast 348 400 12,000 -420 Level Cleveland Center
12:18PM 42.1111 -83.6397 44° Northeast 354 407 11,300 -780 Descending Cleveland Center
12:18PM 42.1389 -83.6075 41° Northeast 353 406 11,000 -300 Descending Cleveland Center
12:19PM 42.1758 -83.5561 46° Northeast 338 389 11,000  Level Cleveland Center
12:19PM 42.2119 -83.5242 33° Northeast 284 327 11,000 -240 Level Cleveland Center
12:20PM 42.2442 -83.4947 34° Northeast 305 351 10,800 -660 Descending Cleveland Center
12:20PM 42.2694 -83.4817 21° North 298 343 10,500 -1,020 Descending Cleveland Center
12:21PM 42.3203 -83.4419 30° Northeast 286 329 9,800 -1,020 Descending Cleveland Center
12:21PM 42.3436 -83.4289 22° Northeast 285 328 9,500 -1,020 Descending Cleveland Center
12:22PM 42.3925 -83.3919 29° Northeast 281 323 8,800 -1,020 Descending Cleveland Center
12:22PM 42.4200 -83.3733 27° Northeast 280 322 8,400 -1,200 Descending Cleveland Center
12:23PM 42.4861 -83.3200 31° Northeast 273 314 7,200 -1,560 Descending Cleveland Center
12:24PM 42.4819 -83.2242 93° East 196 226 5,200 -1,440 Descending Cleveland Center
12:25PM 42.4358 -83.2333 188° South 156 180 4,000 -600 Descending Cleveland Center
12:26PM 42.3981 -83.2514 199° South 160 184 4,000  Level Cleveland Center